Time;durP1;ratioP1;P1;durP2;ratioP2;P2;SDS_P1;SDS_P2;PMS_P1;PMS_P2;Temp;Humidity;BMP_temperature;BMP_pressure;BME280_temperature;BME280_humidity;BME280_pressure;Samples;Min_cycle;Max_cycle;Signal;HPM_P1;HPM_P2
2022/07/15 00:00:06;;;;;;;4.00;3.70;;;25.90;54.80;;;;;;6181196;23;20427;-81
2022/07/15 00:02:33;;;;;;;3.80;3.50;;;25.90;54.80;;;;;;6180525;23;20856;-80
2022/07/15 00:05:00;;;;;;;4.63;3.72;;;25.90;55.10;;;;;;6181489;23;20448;-81
2022/07/15 00:07:27;;;;;;;4.13;3.80;;;25.90;54.90;;;;;;6181384;23;20431;-81
2022/07/15 00:12:43;;;;;;;4.72;3.80;;;25.80;54.60;;;;;;6181928;23;20373;-85
2022/07/15 00:15:11;;;;;;;4.03;3.72;;;25.80;54.40;;;;;;6181128;23;20408;-81
2022/07/15 00:17:39;;;;;;;3.77;3.47;;;25.80;54.60;;;;;;6180144;23;20454;-82
2022/07/15 00:20:07;;;;;;;4.15;3.78;;;25.80;54.60;;;;;;6181473;23;20845;-86
2022/07/15 00:22:33;;;;;;;5.22;3.70;;;25.80;54.40;;;;;;6181927;23;20381;-83
2022/07/15 00:25:00;;;;;;;4.25;3.95;;;25.80;54.20;;;;;;6181093;23;20376;-80
2022/07/15 00:27:27;;;;;;;3.30;3.10;;;25.80;54.40;;;;;;6181063;23;20391;-86
2022/07/15 00:29:54;;;;;;;3.85;3.55;;;25.80;54.40;;;;;;6180753;23;20434;-85
2022/07/15 00:32:21;;;;;;;4.00;3.70;;;25.70;54.50;;;;;;6181221;23;20447;-81
2022/07/15 00:34:50;;;;;;;3.93;3.63;;;25.70;54.40;;;;;;6180551;23;20373;-81
2022/07/15 00:37:17;;;;;;;3.80;3.50;;;25.70;54.30;;;;;;6181027;23;20384;-82
2022/07/15 00:39:44;;;;;;;4.15;3.75;;;25.70;54.30;;;;;;6180388;23;20763;-82
2022/07/15 00:42:43;;;;;;;4.00;3.70;;;25.70;54.10;;;;;;6181097;23;20844;-82
2022/07/15 00:45:00;;;;;;;3.40;3.20;;;25.70;54.10;;;;;;6152515;23;20691;-81
2022/07/15 00:47:27;;;;;;;3.90;3.60;;;25.60;54.10;;;;;;6152860;23;20382;-80
2022/07/15 00:49:54;;;;;;;3.97;3.67;;;25.60;54.30;;;;;;6166776;23;20372;-81
2022/07/15 00:52:25;;;;;;;3.63;3.40;;;25.60;54.10;;;;;;6181273;23;20368;-81
2022/07/15 00:54:53;;;;;;;4.13;3.47;;;25.50;54.10;;;;;;6180717;23;20377;-80
2022/07/15 00:57:22;;;;;;;3.55;3.25;;;25.60;54.00;;;;;;6181013;23;20938;-80
2022/07/15 00:59:51;;;;;;;4.28;3.88;;;25.60;53.90;;;;;;6180193;23;20847;-81
2022/07/15 01:02:20;;;;;;;3.63;3.37;;;25.50;55.00;;;;;;6160101;23;20378;-81
2022/07/15 01:04:49;;;;;;;3.53;3.22;;;25.50;53.50;;;;;;6177729;23;20519;-82
2022/07/15 01:07:16;;;;;;;5.38;3.53;;;25.50;53.60;;;;;;6180860;23;20377;-82
2022/07/15 01:09:43;;;;;;;3.55;3.35;;;25.50;53.50;;;;;;6180577;23;20376;-81
2022/07/15 01:12:11;;;;;;;4.53;3.50;;;25.50;53.50;;;;;;6181332;23;20368;-80
2022/07/15 01:14:37;;;;;;;3.87;3.57;;;25.40;53.40;;;;;;6180516;23;20379;-85
2022/07/15 01:17:10;;;;;;;3.30;3.10;;;25.50;53.70;;;;;;6180699;23;20376;-81
2022/07/15 01:19:37;;;;;;;3.50;2.97;;;25.40;53.60;;;;;;6180035;23;20372;-81
2022/07/15 01:22:05;;;;;;;3.13;2.90;;;25.40;53.40;;;;;;6182180;23;20427;-80
2022/07/15 01:24:32;;;;;;;3.25;2.95;;;25.40;53.60;;;;;;6180860;23;20369;-82
2022/07/15 01:27:00;;;;;;;3.80;3.50;;;25.30;53.60;;;;;;6179854;23;20698;-85
2022/07/15 01:29:28;;;;;;;3.83;3.47;;;25.20;53.30;;;;;;6182008;23;20391;-82
2022/07/15 01:31:55;;;;;;;3.50;3.20;;;25.20;53.70;;;;;;6181866;23;20376;-81
2022/07/15 01:34:22;;;;;;;3.40;3.10;;;25.20;53.70;;;;;;6184412;23;20375;-85
2022/07/15 01:36:49;;;;;;;3.53;3.28;;;25.10;53.50;;;;;;6181974;23;20454;-86
2022/07/15 01:39:16;;;;;;;3.10;2.80;;;25.20;53.50;;;;;;6184069;23;20375;-84
2022/07/15 01:42:03;;;;;;;3.25;3.00;;;25.10;53.30;;;;;;6169481;23;20397;-80
2022/07/15 01:44:30;;;;;;;5.63;3.53;;;25.20;53.40;;;;;;6182989;23;20423;-82
2022/07/15 01:46:57;;;;;;;3.08;2.85;;;25.10;53.60;;;;;;6181804;23;20435;-82
2022/07/15 01:49:29;;;;;;;3.17;2.88;;;25.10;53.40;;;;;;6182921;23;20784;-79
2022/07/15 01:51:57;;;;;;;4.10;3.40;;;25.10;53.30;;;;;;6181869;23;20384;-81
2022/07/15 01:54:25;;;;;;;3.15;2.95;;;25.00;53.30;;;;;;6161054;23;20715;-81
2022/07/15 01:56:53;;;;;;;3.63;3.33;;;25.10;53.20;;;;;;6181011;23;20388;-82
2022/07/15 01:59:22;;;;;;;3.70;3.40;;;25.00;53.00;;;;;;6182910;23;20443;-80
2022/07/15 02:01:50;;;;;;;2.93;2.73;;;25.00;52.90;;;;;;6181820;23;20447;-81
2022/07/15 02:04:18;;;;;;;3.20;3.00;;;25.10;52.80;;;;;;6182491;23;20377;-80
2022/07/15 02:06:46;;;;;;;3.63;3.33;;;25.00;52.70;;;;;;6181815;23;20439;-83
2022/07/15 02:09:13;;;;;;;3.63;3.33;;;25.00;52.80;;;;;;6182546;23;20376;-83
2022/07/15 02:11:40;;;;;;;3.50;3.17;;;25.00;52.40;;;;;;6181800;23;20829;-81
2022/07/15 02:14:07;;;;;;;3.00;2.80;;;25.00;52.40;;;;;;6182413;23;20364;-81
2022/07/15 02:16:35;;;;;;;3.00;2.80;;;25.00;52.40;;;;;;6181958;23;20447;-81
2022/07/15 02:19:02;;;;;;;3.50;3.00;;;25.00;52.50;;;;;;6181309;23;20687;-80
2022/07/15 02:21:29;;;;;;;2.67;2.47;;;24.90;52.40;;;;;;6182491;23;20377;-81
2022/07/15 02:23:59;;;;;;;3.20;3.00;;;24.90;52.50;;;;;;6181669;23;20369;-81
2022/07/15 02:26:27;;;;;;;2.90;2.70;;;24.90;52.50;;;;;;6182398;23;20377;-81
2022/07/15 02:28:54;;;;;;;3.03;2.83;;;24.80;52.40;;;;;;6181824;23;20697;-84
2022/07/15 02:31:20;;;;;;;3.60;2.95;;;24.90;52.60;;;;;;6182397;23;20745;-82
2022/07/15 02:33:47;;;;;;;3.10;2.90;;;24.80;52.50;;;;;;6181346;23;20832;-82
2022/07/15 02:36:14;;;;;;;3.22;2.97;;;24.80;53.20;;;;;;6183725;23;20914;-81
2022/07/15 02:38:42;;;;;;;3.83;3.53;;;24.80;54.00;;;;;;6182785;23;20376;-81
2022/07/15 02:41:09;;;;;;;3.28;3.08;;;24.70;55.20;;;;;;6181627;23;20364;-84
2022/07/15 02:43:36;;;;;;;3.60;3.40;;;24.60;55.90;;;;;;6182421;23;20443;-81
2022/07/15 02:46:04;;;;;;;3.20;3.00;;;24.60;56.10;;;;;;6181433;23;20831;-81
2022/07/15 02:48:31;;;;;;;2.95;2.75;;;24.50;55.20;;;;;;6182726;23;20375;-81
2022/07/15 02:50:59;;;;;;;3.45;3.15;;;24.50;54.80;;;;;;6181680;23;20369;-84
2022/07/15 02:53:28;;;;;;;3.40;3.10;;;24.40;54.90;;;;;;6182493;23;20380;-80
2022/07/15 02:55:58;;;;;;;4.28;3.25;;;24.40;55.10;;;;;;6181477;23;20380;-81
2022/07/15 02:58:27;;;;;;;3.13;2.83;;;24.30;54.60;;;;;;6182371;23;20395;-85
2022/07/15 03:00:54;;;;;;;3.60;3.30;;;24.30;54.30;;;;;;6181427;23;20376;-81
2022/07/15 03:03:21;;;;;;;3.00;2.80;;;24.30;53.90;;;;;;6182179;23;20376;-83
2022/07/15 03:05:49;;;;;;;3.47;3.17;;;24.30;53.60;;;;;;6181170;23;20411;-81
2022/07/15 03:08:17;;;;;;;2.97;2.77;;;24.20;53.10;;;;;;6182120;23;20421;-85
2022/07/15 03:10:44;;;;;;;2.85;2.65;;;24.20;52.90;;;;;;6181293;23;20384;-83
2022/07/15 03:13:11;;;;;;;3.28;2.72;;;24.30;52.90;;;;;;6181905;23;20368;-81
2022/07/15 03:15:38;;;;;;;3.17;2.97;;;24.30;52.70;;;;;;6181988;23;20372;-81
2022/07/15 03:18:04;;;;;;;2.97;2.78;;;24.30;52.50;;;;;;6181106;23;20407;-81
2022/07/15 03:20:32;;;;;;;3.00;2.80;;;24.30;52.80;;;;;;6181824;23;20433;-81
2022/07/15 03:22:59;;;;;;;2.83;2.63;;;24.30;52.80;;;;;;6180947;23;20376;-80
2022/07/15 03:25:25;;;;;;;3.33;3.13;;;24.30;53.20;;;;;;6181586;23;20400;-82
2022/07/15 03:27:52;;;;;;;4.07;3.05;;;24.20;55.10;;;;;;6182693;23;20435;-84
2022/07/15 03:30:21;;;;;;;3.60;3.40;;;24.10;56.60;;;;;;6181920;23;20377;-82
2022/07/15 03:32:48;;;;;;;3.30;3.08;;;24.00;57.20;;;;;;6180729;23;20403;-86
2022/07/15 03:35:16;;;;;;;3.33;3.03;;;23.90;57.30;;;;;;6182894;23;20705;-82
2022/07/15 03:37:43;;;;;;;3.37;3.17;;;23.90;56.80;;;;;;6182064;23;20446;-82
2022/07/15 03:40:10;;;;;;;3.60;3.30;;;23.80;56.80;;;;;;6180568;23;20376;-80
2022/07/15 03:42:38;;;;;;;3.37;3.13;;;23.80;57.30;;;;;;6183310;23;20379;-81
2022/07/15 03:45:05;;;;;;;3.42;3.13;;;23.80;57.50;;;;;;6182291;23;20385;-85
2022/07/15 03:47:32;;;;;;;3.20;3.00;;;23.60;57.90;;;;;;6181718;23;20423;-82
2022/07/15 03:49:59;;;;;;;3.70;3.38;;;23.60;59.40;;;;;;6180953;23;20431;-81
2022/07/15 03:52:26;;;;;;;3.58;2.90;;;23.60;56.20;;;;;;6181516;23;20384;-81
2022/07/15 03:54:53;;;;;;;2.65;2.38;;;23.60;55.00;;;;;;6180644;23;20373;-80
2022/07/15 03:57:20;;;;;;;3.30;3.00;;;23.60;54.10;;;;;;6183188;23;20422;-80
2022/07/15 03:59:47;;;;;;;2.88;2.67;;;23.70;53.40;;;;;;6182878;23;20372;-82
2022/07/15 04:02:14;;;;;;;2.40;2.20;;;23.80;53.30;;;;;;6180800;23;20368;-82
2022/07/15 04:04:41;;;;;;;2.97;2.70;;;23.90;53.20;;;;;;6181323;23;20697;-80
2022/07/15 04:07:07;;;;;;;3.00;2.80;;;23.90;53.20;;;;;;6181283;23;20423;-82
2022/07/15 04:09:34;;;;;;;3.47;2.70;;;23.90;52.60;;;;;;6181247;23;20422;-85
2022/07/15 04:12:01;;;;;;;3.33;3.10;;;24.00;52.60;;;;;;6180880;23;20372;-85
2022/07/15 04:14:28;;;;;;;2.97;2.77;;;24.00;53.40;;;;;;6181726;23;20372;-84
2022/07/15 04:16:55;;;;;;;3.38;3.08;;;24.00;54.80;;;;;;6181787;23;20695;-80
2022/07/15 04:19:22;;;;;;;3.03;2.83;;;24.00;55.10;;;;;;6182856;23;20395;-83
2022/07/15 04:21:49;;;;;;;3.75;3.22;;;24.00;54.70;;;;;;6181317;23;20895;-81
2022/07/15 04:24:16;;;;;;;3.10;2.90;;;23.90;54.50;;;;;;6180550;23;20360;-82
2022/07/15 04:26:49;;;;;;;3.20;2.88;;;23.90;54.30;;;;;;6181452;23;20396;-80
2022/07/15 04:29:16;;;;;;;3.97;3.67;;;23.90;54.60;;;;;;6180972;23;20737;-82
2022/07/15 04:31:43;;;;;;;3.50;3.30;;;23.80;56.00;;;;;;6181509;23;20697;-82
2022/07/15 04:34:10;;;;;;;3.20;3.00;;;23.70;57.80;;;;;;6180603;23;20899;-81
2022/07/15 04:36:37;;;;;;;3.30;3.00;;;23.60;58.00;;;;;;6181172;23;20431;-85
2022/07/15 04:39:04;;;;;;;3.40;3.10;;;23.50;57.30;;;;;;6180534;23;20380;-81
2022/07/15 04:41:31;;;;;;;3.38;3.08;;;23.50;55.70;;;;;;6180797;23;20423;-80
2022/07/15 04:43:58;;;;;;;3.00;2.80;;;23.50;53.20;;;;;;6180358;23;20368;-81
2022/07/15 04:46:25;;;;;;;3.42;2.78;;;23.60;52.80;;;;;;6181014;23;20431;-83
2022/07/15 04:51:37;;;;;;;2.35;2.20;;;23.80;50.80;;;;;;6169876;23;20840;-81
2022/07/15 04:54:04;;;;;;;3.03;2.47;;;23.90;50.70;;;;;;6181139;23;20377;-81
2022/07/15 04:56:34;;;;;;;4.82;2.50;;;24.00;50.50;;;;;;6181993;23;20365;-84
2022/07/15 04:59:01;;;;;;;3.13;2.80;;;24.10;50.50;;;;;;6181051;23;20380;-85
2022/07/15 05:01:28;;;;;;;2.60;2.33;;;24.10;51.00;;;;;;6181648;23;20402;-81
2022/07/15 05:03:57;;;;;;;2.78;2.40;;;24.10;50.40;;;;;;6181537;23;20399;-84
2022/07/15 05:06:24;;;;;;;2.17;1.80;;;24.20;49.30;;;;;;6181555;23;20501;-81
2022/07/15 05:08:50;;;;;;;3.13;1.95;;;24.30;49.30;;;;;;6158639;23;20369;-82
2022/07/15 05:11:17;;;;;;;3.50;2.20;;;24.30;49.40;;;;;;6182413;23;20733;-80
2022/07/15 05:13:44;;;;;;;2.22;2.03;;;24.30;49.90;;;;;;6183490;23;20368;-82
2022/07/15 05:16:11;;;;;;;3.35;2.05;;;24.30;50.30;;;;;;6183210;23;20679;-81
2022/07/15 05:18:38;;;;;;;6.60;2.20;;;24.30;50.10;;;;;;6182084;23;20447;-83
2022/07/15 05:21:05;;;;;;;2.08;1.90;;;24.40;49.50;;;;;;6183116;23;20376;-83
2022/07/15 05:23:32;;;;;;;2.10;2.00;;;24.40;49.30;;;;;;6181833;23;20679;-83
2022/07/15 05:25:59;;;;;;;2.60;2.40;;;24.40;50.90;;;;;;6183337;23;20376;-84
2022/07/15 05:28:27;;;;;;;2.53;2.42;;;24.40;52.30;;;;;;6181836;23;20384;-82
2022/07/15 05:30:54;;;;;;;2.85;2.65;;;24.40;53.50;;;;;;6183238;23;20407;-85
2022/07/15 05:33:21;;;;;;;2.75;2.25;;;24.50;54.10;;;;;;6182446;23;20380;-81
2022/07/15 05:35:48;;;;;;;2.20;2.10;;;24.40;52.60;;;;;;6182382;23;20368;-80
2022/07/15 05:38:19;;;;;;;3.20;2.00;;;24.50;51.80;;;;;;6181964;23;20395;-84
2022/07/15 05:40:46;;;;;;;5.60;2.20;;;24.50;51.30;;;;;;6182915;23;20911;-82
2022/07/15 05:43:13;;;;;;;2.33;1.85;;;24.50;48.70;;;;;;6182663;23;20415;-85
2022/07/15 05:45:41;;;;;;;4.07;2.03;;;24.60;47.30;;;;;;6182141;23;20829;-82
2022/07/15 05:48:08;;;;;;;4.57;2.17;;;24.80;47.40;;;;;;6182504;23;20426;-81
2022/07/15 05:50:35;;;;;;;1.73;1.52;;;24.90;47.00;;;;;;6181695;23;20857;-81
2022/07/15 05:53:02;;;;;;;2.92;1.92;;;25.00;47.30;;;;;;6182821;23;20702;-82
2022/07/15 05:55:29;;;;;;;2.08;1.70;;;25.00;47.40;;;;;;6183665;23;20844;-82
2022/07/15 05:57:56;;;;;;;3.00;2.00;;;25.00;47.20;;;;;;6182675;23;20377;-80
2022/07/15 06:00:23;;;;;;;2.65;1.80;;;25.00;46.90;;;;;;6181752;23;20380;-81
2022/07/15 06:02:51;;;;;;;2.72;1.83;;;25.10;47.90;;;;;;6183676;23;20376;-83
2022/07/15 06:05:18;;;;;;;2.50;2.03;;;25.10;48.10;;;;;;6181634;23;20376;-81
2022/07/15 06:07:45;;;;;;;2.90;2.60;;;25.10;50.70;;;;;;6182755;23;20376;-85
2022/07/15 06:10:11;;;;;;;2.67;2.28;;;25.10;53.50;;;;;;6182459;23;20702;-85
2022/07/15 06:12:39;;;;;;;3.42;2.15;;;25.10;54.40;;;;;;6181697;23;20821;-86
2022/07/15 06:15:06;;;;;;;1.80;1.70;;;25.20;51.50;;;;;;6182316;23;20377;-81
2022/07/15 06:17:33;;;;;;;3.08;1.52;;;25.20;47.60;;;;;;6183079;23;20380;-85
2022/07/15 06:20:00;;;;;;;1.95;1.75;;;25.30;46.60;;;;;;6182646;23;20377;-81
2022/07/15 06:22:36;;;;;;;2.40;1.55;;;25.40;45.60;;;;;;6181627;23;20369;-85
2022/07/15 06:25:04;;;;;;;3.22;1.65;;;25.40;44.60;;;;;;6182546;23;20473;-87
2022/07/15 06:27:32;;;;;;;1.92;1.52;;;25.50;44.20;;;;;;6181945;23;20376;-80
2022/07/15 06:29:59;;;;;;;1.60;1.50;;;25.70;44.10;;;;;;6182576;23;20399;-80
2022/07/15 06:32:27;;;;;;;2.22;1.60;;;25.70;44.00;;;;;;6181419;23;20436;-81
2022/07/15 06:34:54;;;;;;;3.85;1.48;;;25.80;43.40;;;;;;6182650;23;20666;-85
2022/07/15 06:37:21;;;;;;;1.90;1.50;;;25.90;44.00;;;;;;6181382;23;20381;-81
2022/07/15 06:39:49;;;;;;;1.73;1.45;;;26.00;44.70;;;;;;6182312;23;20368;-80
2022/07/15 06:42:16;;;;;;;2.00;1.40;;;26.00;43.60;;;;;;6182033;23;20710;-82
2022/07/15 06:44:43;;;;;;;1.40;1.30;;;26.10;43.80;;;;;;6182140;23;20821;-85
2022/07/15 06:47:10;;;;;;;2.33;1.73;;;26.20;43.80;;;;;;6182601;23;20405;-85
2022/07/15 06:49:38;;;;;;;3.90;1.75;;;26.30;43.70;;;;;;6181536;23;20393;-84
2022/07/15 06:52:05;;;;;;;2.10;1.48;;;26.40;43.60;;;;;;6182314;23;20373;-83
2022/07/15 06:54:33;;;;;;;1.70;1.30;;;26.40;42.50;;;;;;6182584;23;20372;-84
2022/07/15 06:57:01;;;;;;;3.33;1.73;;;26.60;43.10;;;;;;6181972;23;20372;-81
2022/07/15 06:59:28;;;;;;;1.77;1.67;;;26.60;42.80;;;;;;6181363;23;20368;-81
2022/07/15 07:01:56;;;;;;;1.67;1.50;;;26.70;42.50;;;;;;6182290;23;20372;-81
2022/07/15 07:04:23;;;;;;;2.42;1.58;;;26.80;42.10;;;;;;6181266;23;20372;-81
2022/07/15 07:06:50;;;;;;;2.80;1.80;;;26.90;43.20;;;;;;6182180;23;20467;-82
2022/07/15 07:09:17;;;;;;;2.97;1.55;;;27.00;46.10;;;;;;6181866;23;20373;-80
2022/07/15 07:11:44;;;;;;;1.73;1.63;;;27.00;46.00;;;;;;6181424;23;20376;-82
2022/07/15 07:14:12;;;;;;;3.25;1.63;;;27.10;44.90;;;;;;6182192;23;20381;-81
2022/07/15 07:16:39;;;;;;;1.60;1.30;;;27.10;43.50;;;;;;6181406;23;20372;-85
2022/07/15 07:19:06;;;;;;;1.52;1.05;;;27.20;41.50;;;;;;6181763;23;20372;-83
2022/07/15 07:21:33;;;;;;;3.25;1.25;;;27.30;41.50;;;;;;6181068;23;20786;-84
2022/07/15 07:24:00;;;;;;;1.70;1.20;;;27.40;41.90;;;;;;6181677;23;20825;-83
2022/07/15 07:26:27;;;;;;;1.60;1.10;;;27.60;42.50;;;;;;6180557;23;20376;-80
2022/07/15 07:28:54;;;;;;;2.53;1.20;;;27.70;42.50;;;;;;6181551;23;20877;-82
2022/07/15 07:31:26;;;;;;;1.90;1.20;;;27.80;41.10;;;;;;6181841;23;20737;-82
2022/07/15 07:33:57;;;;;;;1.50;1.00;;;27.90;40.80;;;;;;6168897;23;20388;-85
2022/07/15 07:36:25;;;;;;;2.30;1.43;;;28.10;40.90;;;;;;6181730;23;20427;-83
2022/07/15 07:38:53;;;;;;;2.88;1.58;;;28.30;40.70;;;;;;6180838;23;20365;-80
2022/07/15 07:41:20;;;;;;;1.80;1.70;;;28.50;40.90;;;;;;6182785;23;20376;-81
2022/07/15 07:43:47;;;;;;;2.00;1.70;;;28.70;42.50;;;;;;6181221;23;20452;-80
2022/07/15 07:46:14;;;;;;;1.83;1.50;;;28.90;42.60;;;;;;6179625;23;20772;-82
2022/07/15 07:48:42;;;;;;;1.40;1.27;;;29.10;42.00;;;;;;6180702;23;20373;-80
2022/07/15 07:51:09;;;;;;;3.60;1.70;;;29.20;41.40;;;;;;6181155;23;20379;-83
2022/07/15 07:53:36;;;;;;;2.90;1.40;;;29.30;41.80;;;;;;6181009;23;20375;-79
2022/07/15 07:56:03;;;;;;;3.17;1.80;;;29.40;42.40;;;;;;6181198;23;20364;-83
2022/07/15 07:58:30;;;;;;;2.60;2.10;;;29.50;42.30;;;;;;6180824;23;20376;-81
2022/07/15 08:00:57;;;;;;;2.72;1.80;;;29.60;41.90;;;;;;6181779;23;20450;-83
2022/07/15 08:03:24;;;;;;;3.45;1.98;;;29.80;41.90;;;;;;6181778;23;20729;-83
2022/07/15 08:05:53;;;;;;;3.30;2.10;;;29.80;41.80;;;;;;6180333;23;20365;-83
2022/07/15 08:08:21;;;;;;;4.07;2.00;;;30.00;42.10;;;;;;6181502;23;20773;-81
2022/07/15 08:10:51;;;;;;;2.55;2.08;;;30.10;42.00;;;;;;6180403;23;20429;-85
2022/07/15 08:13:21;;;;;;;3.22;2.20;;;30.10;42.40;;;;;;6182950;23;20368;-80
2022/07/15 08:15:49;;;;;;;2.60;2.03;;;30.20;42.70;;;;;;6180437;23;20383;-81
2022/07/15 08:18:25;;;;;;;2.50;2.08;;;30.30;43.10;;;;;;6181327;23;20384;-80
2022/07/15 08:20:53;;;;;;;2.40;2.20;;;30.40;42.70;;;;;;6180457;23;20356;-80
2022/07/15 08:23:22;;;;;;;3.35;2.25;;;30.50;42.40;;;;;;6181059;23;20434;-79
2022/07/15 08:25:51;;;;;;;3.92;2.33;;;30.60;43.20;;;;;;6180601;23;20426;-83
2022/07/15 08:28:18;;;;;;;3.00;2.10;;;30.60;42.40;;;;;;6182476;23;20418;-79
2022/07/15 08:30:46;;;;;;;2.47;2.28;;;30.80;42.70;;;;;;6181518;23;20401;-80
2022/07/15 08:33:14;;;;;;;2.15;2.00;;;30.90;42.40;;;;;;6181342;23;20403;-80
2022/07/15 08:35:41;;;;;;;3.80;2.20;;;30.80;41.50;;;;;;6180298;23;20391;-82
2022/07/15 08:38:10;;;;;;;2.42;2.22;;;30.70;42.60;;;;;;6180669;23;20764;-80
2022/07/15 08:40:38;;;;;;;3.50;2.17;;;30.70;41.80;;;;;;6179886;23;20427;-88
2022/07/15 08:43:09;;;;;;;3.92;2.28;;;30.70;41.00;;;;;;6181064;23;20693;-81
2022/07/15 08:45:37;;;;;;;2.40;2.20;;;30.80;41.80;;;;;;6180338;23;20364;-83
2022/07/15 08:48:06;;;;;;;2.95;2.08;;;31.00;41.70;;;;;;6181142;23;20395;-80
2022/07/15 08:50:34;;;;;;;2.97;1.90;;;31.10;40.70;;;;;;6181320;23;20745;-81
2022/07/15 08:53:01;;;;;;;4.13;1.80;;;31.00;40.30;;;;;;6168359;23;20365;-81
2022/07/15 08:55:29;;;;;;;3.20;1.92;;;31.10;40.60;;;;;;6180985;23;20713;-86
2022/07/15 08:57:57;;;;;;;2.17;1.77;;;31.20;40.40;;;;;;6180155;23;20372;-80
2022/07/15 09:00:28;;;;;;;2.38;2.17;;;31.20;40.70;;;;;;6181174;23;20435;-87
2022/07/15 09:03:00;;;;;;;4.13;2.30;;;31.30;41.00;;;;;;6181987;23;20370;-83
2022/07/15 09:05:33;;;;;;;3.93;2.20;;;31.50;41.40;;;;;;6182364;23;20381;-80
2022/07/15 09:08:14;;;;;;;3.85;2.45;;;31.50;40.30;;;;;;6181683;23;20754;-84
2022/07/15 09:10:49;;;;;;;4.00;2.60;;;31.60;40.60;;;;;;6180031;23;20442;-80
2022/07/15 09:13:28;;;;;;;2.45;2.00;;;31.60;40.20;;;;;;6181115;23;20694;-80
2022/07/15 09:15:57;;;;;;;2.75;2.20;;;31.60;40.60;;;;;;6180292;23;20380;-85
2022/07/15 09:18:28;;;;;;;2.00;1.90;;;31.70;41.00;;;;;;6180812;23;20864;-85
2022/07/15 09:20:57;;;;;;;3.30;2.20;;;31.80;41.60;;;;;;6180956;23;20398;-81
2022/07/15 09:23:30;;;;;;;2.42;2.22;;;32.00;41.90;;;;;;6181039;23;20384;-82
2022/07/15 09:26:26;;;;;;;2.30;2.10;;;32.20;41.10;;;;;;6180594;23;20377;-81
2022/07/15 09:28:53;;;;;;;2.27;2.13;;;32.40;40.60;;;;;;6179904;23;20384;-83
2022/07/15 09:34:24;;;;;;;3.95;2.30;;;32.60;40.90;;;;;;6168929;23;20365;-83
2022/07/15 09:36:54;;;;;;;3.10;2.47;;;32.80;40.20;;;;;;6180870;23;20444;-85
2022/07/15 09:39:23;;;;;;;1.92;1.80;;;32.80;40.20;;;;;;6181705;23;20830;-83
2022/07/15 09:41:51;;;;;;;2.50;2.22;;;32.80;40.90;;;;;;6180495;23;20372;-87
2022/07/15 09:44:27;;;;;;;2.70;2.33;;;32.90;40.00;;;;;;6180468;23;20403;-86
2022/07/15 09:47:01;;;;;;;2.65;2.40;;;33.10;40.40;;;;;;6181025;23;20447;-81
2022/07/15 09:49:29;;;;;;;3.72;2.53;;;33.00;40.50;;;;;;6180247;23;20438;-82
2022/07/15 09:52:06;;;;;;;3.00;2.42;;;33.10;40.60;;;;;;6182812;23;20708;-84
2022/07/15 09:54:39;;;;;;;4.72;2.90;;;33.10;40.30;;;;;;6169243;23;20368;-84
2022/07/15 09:57:08;;;;;;;2.60;2.40;;;33.20;41.10;;;;;;6182992;23;20428;-84
2022/07/15 09:59:36;;;;;;;2.80;2.60;;;33.40;41.00;;;;;;6152358;23;20922;-85
2022/07/15 10:02:08;;;;;;;3.63;2.80;;;33.60;40.70;;;;;;6153293;23;20374;-84
2022/07/15 10:04:35;;;;;;;3.25;2.40;;;33.70;39.60;;;;;;6152206;23;20826;-84
2022/07/15 10:07:04;;;;;;;2.60;2.40;;;33.80;40.30;;;;;;6163591;23;20911;-81
2022/07/15 10:09:52;;;;;;;3.25;2.83;;;33.80;40.00;;;;;;6169817;23;20381;-89
2022/07/15 10:12:24;;;;;;;4.07;2.67;;;34.10;40.50;;;;;;6182803;23;20784;-86
2022/07/15 10:15:03;;;;;;;2.73;2.53;;;34.00;40.00;;;;;;6172904;23;20387;-91
2022/07/15 10:17:57;;;;;;;2.80;2.67;;;34.30;39.60;;;;;;6182007;23;20384;-88
2022/07/15 10:20:24;;;;;;;2.60;2.40;;;34.40;38.70;;;;;;6182031;23;20384;-87
2022/07/15 10:23:14;;;;;;;2.45;2.25;;;34.60;38.60;;;;;;6180973;23;20369;-86
2022/07/15 10:26:02;;;;;;;4.03;2.67;;;34.50;38.60;;;;;;6181446;23;20423;-87
2022/07/15 10:28:32;;;;;;;6.15;2.75;;;34.40;38.10;;;;;;6182355;23;20686;-81
2022/07/15 10:31:20;;;;;;;3.28;2.30;;;34.30;38.50;;;;;;6182072;23;20419;-81
2022/07/15 10:34:03;;;;;;;2.72;2.28;;;34.30;38.80;;;;;;6182829;23;20853;-84
2022/07/15 10:36:52;;;;;;;2.23;2.13;;;34.30;38.20;;;;;;6182442;23;20369;-80
2022/07/15 10:39:26;;;;;;;2.60;2.40;;;34.40;38.70;;;;;;6169364;23;20380;-81
2022/07/15 10:41:53;;;;;;;2.75;2.40;;;34.50;38.50;;;;;;6182162;23;20749;-85
2022/07/15 10:44:21;;;;;;;2.53;2.28;;;34.70;38.90;;;;;;6181629;23;20829;-84
2022/07/15 10:47:07;;;;;;;3.83;2.22;;;34.70;37.60;;;;;;6183635;23;20376;-86
2022/07/15 10:49:34;;;;;;;2.80;2.40;;;34.60;38.60;;;;;;6181362;23;20372;-80
2022/07/15 10:52:19;;;;;;;2.95;2.30;;;34.80;39.40;;;;;;6182363;23;20442;-84
2022/07/15 10:54:49;;;;;;;4.73;2.87;;;35.00;37.90;;;;;;6169693;23;20476;-87
2022/07/15 10:57:19;;;;;;;3.60;2.30;;;35.10;37.00;;;;;;6182326;23;20388;-82
2022/07/15 10:59:55;;;;;;;2.63;2.00;;;35.10;36.50;;;;;;6181430;23;20369;-86
2022/07/15 11:02:25;;;;;;;3.20;2.30;;;35.10;37.50;;;;;;6180638;23;20430;-84
2022/07/15 11:05:13;;;;;;;3.00;2.10;;;35.10;36.40;;;;;;6182283;23;20431;-80
2022/07/15 11:07:40;;;;;;;3.53;2.08;;;35.10;36.20;;;;;;6181366;23;20784;-86
2022/07/15 11:10:07;;;;;;;2.35;1.90;;;35.00;36.40;;;;;;6181767;23;20403;-83
2022/07/15 11:12:35;;;;;;;2.83;2.27;;;35.10;37.90;;;;;;6180800;23;20738;-79
2022/07/15 11:15:12;;;;;;;2.25;1.98;;;35.30;37.30;;;;;;6181961;23;20731;-85
2022/07/15 11:17:41;;;;;;;2.42;1.83;;;35.40;36.50;;;;;;6181259;23;20376;-80
2022/07/15 11:20:12;;;;;;;2.83;1.90;;;35.60;35.30;;;;;;6182115;23;20380;-80
2022/07/15 11:22:41;;;;;;;5.95;2.08;;;35.70;33.30;;;;;;6181121;23;20386;-84
2022/07/15 11:25:36;;;;;;;3.00;2.00;;;35.90;34.80;;;;;;6181543;23;20463;-79
2022/07/15 11:28:13;;;;;;;2.53;1.90;;;36.00;34.60;;;;;;6169257;23;20438;-86
2022/07/15 11:30:53;;;;;;;2.58;2.38;;;36.00;33.80;;;;;;6182430;23;20408;-81
2022/07/15 11:33:25;;;;;;;3.72;1.92;;;36.00;34.30;;;;;;6181465;23;20757;-84
2022/07/15 11:35:56;;;;;;;3.10;2.08;;;35.90;33.00;;;;;;6180917;23;20376;-86
2022/07/15 11:38:36;;;;;;;1.70;1.60;;;35.80;33.80;;;;;;6181917;23;20745;-86
2022/07/15 11:46:48;;;;;;;1.63;1.50;;;36.10;32.90;;;;;;6181997;23;20372;-86
2022/07/15 11:49:29;;;;;;;2.05;1.60;;;36.30;32.90;;;;;;6181641;23;20707;-80
2022/07/15 11:51:58;;;;;;;2.42;1.58;;;36.40;31.50;;;;;;6180936;23;20375;-84
2022/07/15 11:54:25;;;;;;;2.25;1.20;;;36.40;31.70;;;;;;6181405;23;20365;-81
2022/07/15 11:56:57;;;;;;;1.67;1.58;;;36.60;31.30;;;;;;6181065;23;20365;-81
2022/07/15 11:59:24;;;;;;;2.08;1.50;;;36.50;29.80;;;;;;6181299;23;20709;-86
2022/07/15 12:02:09;;;;;;;1.65;1.30;;;36.40;30.00;;;;;;6181057;23;20373;-81
2022/07/15 12:04:37;;;;;;;2.67;1.63;;;36.50;31.00;;;;;;6181479;23;20380;-86
2022/07/15 12:07:04;;;;;;;1.63;1.40;;;36.70;30.90;;;;;;6180977;23;20757;-84
2022/07/15 12:09:53;;;;;;;2.20;1.33;;;36.90;31.20;;;;;;6181688;23;20446;-81
2022/07/15 12:12:20;;;;;;;4.27;1.50;;;37.10;29.40;;;;;;6168641;23;20368;-83
2022/07/15 12:14:49;;;;;;;3.05;1.40;;;37.20;29.40;;;;;;6181770;23;20404;-81
2022/07/15 12:17:17;;;;;;;1.90;1.30;;;37.30;29.10;;;;;;6182070;23;20371;-85
2022/07/15 12:19:50;;;;;;;2.10;1.20;;;37.40;28.50;;;;;;6181112;23;20377;-79
2022/07/15 12:22:17;;;;;;;2.90;1.15;;;37.40;28.10;;;;;;6180051;23;20368;-86
2022/07/15 12:24:51;;;;;;;2.45;1.30;;;37.50;28.50;;;;;;6181651;23;20383;-85
2022/07/15 12:27:39;;;;;;;2.22;1.30;;;37.60;29.00;;;;;;6180676;23;20436;-84
2022/07/15 12:30:09;;;;;;;2.53;1.40;;;37.60;28.30;;;;;;6180422;23;20372;-79
2022/07/15 12:32:37;;;;;;;1.55;1.17;;;37.60;28.60;;;;;;6181497;23;20372;-85
2022/07/15 12:35:05;;;;;;;2.00;1.30;;;37.50;28.20;;;;;;6180320;23;20385;-81
2022/07/15 12:37:41;;;;;;;1.20;1.10;;;37.40;27.00;;;;;;6180998;23;20376;-81
2022/07/15 12:40:11;;;;;;;3.95;1.40;;;37.40;27.90;;;;;;6180512;23;20391;-86
2022/07/15 12:42:44;;;;;;;2.38;1.10;;;37.60;27.60;;;;;;6181240;23;20475;-79
2022/07/15 12:45:21;;;;;;;2.83;1.20;;;37.70;27.20;;;;;;6181619;23;20396;-84
2022/07/15 12:47:57;;;;;;;2.40;1.20;;;37.90;27.30;;;;;;6180955;23;20451;-81
2022/07/15 12:50:24;;;;;;;1.40;0.82;;;37.80;25.20;;;;;;6150928;23;20378;-82
2022/07/15 12:52:54;;;;;;;1.88;0.90;;;37.80;25.50;;;;;;6174581;23;20376;-84
2022/07/15 12:55:27;;;;;;;1.70;0.88;;;37.90;25.30;;;;;;6180436;23;20379;-82
2022/07/15 12:58:06;;;;;;;2.30;0.93;;;38.00;25.80;;;;;;6181461;23;20747;-82
2022/07/15 13:00:34;;;;;;;1.98;0.93;;;38.00;25.50;;;;;;6168184;23;20775;-82
2022/07/15 13:03:07;;;;;;;1.75;0.95;;;38.10;25.60;;;;;;6182240;23;20372;-87
2022/07/15 13:05:39;;;;;;;2.65;1.20;;;38.30;26.80;;;;;;6180640;23;20396;-83
2022/07/15 13:08:14;;;;;;;1.35;1.00;;;38.60;26.90;;;;;;6181166;23;20742;-80
2022/07/15 13:10:44;;;;;;;2.63;1.38;;;38.60;26.60;;;;;;6180478;23;20372;-85
2022/07/15 13:13:13;;;;;;;1.92;1.08;;;38.70;27.30;;;;;;6181392;23;20398;-86